sensor_id;sensor_type;location;lat;lon;timestamp;P1;P2;P0
49686;PMS5003;36064;38.180;-122.272;2024-01-07T03:55:00;0.0;0.0;
49686;PMS5003;36064;38.180;-122.272;2024-01-07T04:00:00;0.0;0.0;
49686;PMS5003;36064;38.180;-122.272;2024-01-07T04:05:00;0.4;0.4;
49686;PMS5003;36064;38.180;-122.272;2024-01-07T04:10:00;0.0;0.0;
49686;PMS5003;36064;38.180;-122.272;2024-01-07T04:15:00;1.0;0.4;
49686;PMS5003;36064;38.180;-122.272;2024-01-07T04:20:00;0.2;0.0;
49686;PMS5003;36064;38.180;-122.272;2024-01-07T04:25:00;1.0;0.4;
49686;PMS5003;36064;38.180;-122.272;2024-01-07T04:30:00;0.8;0.4;
49686;PMS5003;36064;38.180;-122.272;2024-01-07T04:35:00;0.8;0.4;
49686;PMS5003;36064;38.180;-122.272;2024-01-07T04:40:01;0.4;0.4;
49686;PMS5003;36064;38.180;-122.272;2024-01-07T04:45:00;0.0;0.4;
49686;PMS5003;36064;38.180;-122.272;2024-01-07T04:50:00;1.0;0.4;
49686;PMS5003;36064;38.180;-122.272;2024-01-07T04:55:00;0.4;0.2;
49686;PMS5003;36064;38.180;-122.272;2024-01-07T05:00:01;0.8;0.8;
49686;PMS5003;36064;38.180;-122.272;2024-01-07T05:05:00;0.8;0.8;
49686;PMS5003;36064;38.180;-122.272;2024-01-07T05:10:00;0.4;0.8;
49686;PMS5003;36064;38.180;-122.272;2024-01-07T05:15:00;0.4;0.8;
49686;PMS5003;36064;38.180;-122.272;2024-01-07T05:20:00;0.4;0.8;
49686;PMS5003;36064;38.180;-122.272;2024-01-07T05:25:00;0.0;0.0;
49686;PMS5003;36064;38.180;-122.272;2024-01-07T05:30:00;1.0;0.2;
49686;PMS5003;36064;38.180;-122.272;2024-01-07T05:35:00;2.0;1.2;
49686;PMS5003;36064;38.180;-122.272;2024-01-07T05:40:00;0.8;0.6;
49686;PMS5003;36064;38.180;-122.272;2024-01-07T05:45:00;0.6;0.6;
49686;PMS5003;36064;38.180;-122.272;2024-01-07T05:50:00;0.0;0.0;
49686;PMS5003;36064;38.180;-122.272;2024-01-07T05:55:00;1.2;1.2;
49686;PMS5003;36064;38.180;-122.272;2024-01-07T06:00:00;2.8;2.8;
49686;PMS5003;36064;38.180;-122.272;2024-01-07T06:05:01;3.8;3.4;
49686;PMS5003;36064;38.180;-122.272;2024-01-07T06:10:00;6.6;4.8;
49686;PMS5003;36064;38.180;-122.272;2024-01-07T06:15:00;5.2;5.2;
49686;PMS5003;36064;38.180;-122.272;2024-01-07T06:20:00;5.2;5.2;
49686;PMS5003;36064;38.180;-122.272;2024-01-07T06:25:00;4.0;4.0;
49686;PMS5003;36064;38.180;-122.272;2024-01-07T06:30:00;3.0;3.0;
49686;PMS5003;36064;38.180;-122.272;2024-01-07T06:35:00;3.0;3.0;
49686;PMS5003;36064;38.180;-122.272;2024-01-07T06:40:00;2.4;2.0;
49686;PMS5003;36064;38.180;-122.272;2024-01-07T06:45:00;0.6;0.4;
49686;PMS5003;36064;38.180;-122.272;2024-01-07T06:50:00;1.23;0.42;
49686;PMS5003;36064;38.180;-122.272;2024-01-07T06:55:00;1.4;0.8;
49686;PMS5003;36064;38.180;-122.272;2024-01-07T07:00:00;0.8;0.8;
49686;PMS5003;36064;38.180;-122.272;2024-01-07T07:05:00;1.8;1.8;
49686;PMS5003;36064;38.180;-122.272;2024-01-07T07:10:00;0.4;0.4;
49686;PMS5003;36064;38.180;-122.272;2024-01-07T07:15:00;1.6;0.6;
49686;PMS5003;36064;38.180;-122.272;2024-01-07T07:20:00;3.0;2.6;
49686;PMS5003;36064;38.180;-122.272;2024-01-07T07:25:01;6.2;5.8;
49686;PMS5003;36064;38.180;-122.272;2024-01-07T07:30:00;6.2;5.8;
49686;PMS5003;36064;38.180;-122.272;2024-01-07T07:35:00;6.2;5.8;
49686;PMS5003;36064;38.180;-122.272;2024-01-07T07:40:00;1.8;1.8;
49686;PMS5003;36064;38.180;-122.272;2024-01-07T07:45:00;3.0;3.0;
49686;PMS5003;36064;38.180;-122.272;2024-01-07T07:50:00;0.8;0.8;
49686;PMS5003;36064;38.180;-122.272;2024-01-07T07:55:00;0.8;0.8;
49686;PMS5003;36064;38.180;-122.272;2024-01-07T08:00:00;1.6;1.4;
49686;PMS5003;36064;38.180;-122.272;2024-01-07T08:05:00;1.6;1.6;
49686;PMS5003;36064;38.180;-122.272;2024-01-07T08:10:00;2.0;2.0;
49686;PMS5003;36064;38.180;-122.272;2024-01-07T08:15:00;1.2;1.2;
49686;PMS5003;36064;38.180;-122.272;2024-01-07T08:20:00;1.0;0.6;
49686;PMS5003;36064;38.180;-122.272;2024-01-07T08:25:01;0.8;0.6;
49686;PMS5003;36064;38.180;-122.272;2024-01-07T08:30:00;1.4;1.4;
49686;PMS5003;36064;38.180;-122.272;2024-01-07T08:35:00;1.4;1.4;
49686;PMS5003;36064;38.180;-122.272;2024-01-07T08:40:01;2.6;1.4;
49686;PMS5003;36064;38.180;-122.272;2024-01-07T08:45:00;0.8;0.8;
49686;PMS5003;36064;38.180;-122.272;2024-01-07T08:50:00;1.2;1.2;
49686;PMS5003;36064;38.180;-122.272;2024-01-07T08:55:01;5.4;4.6;
49686;PMS5003;36064;38.180;-122.272;2024-01-07T09:00:00;6.2;5.4;
49686;PMS5003;36064;38.180;-122.272;2024-01-07T09:05:00;4.4;4.4;
49686;PMS5003;36064;38.180;-122.272;2024-01-07T09:10:00;5.6;6.2;
49686;PMS5003;36064;38.180;-122.272;2024-01-07T09:15:00;8.4;7.6;
49686;PMS5003;36064;38.180;-122.272;2024-01-07T09:20:00;10.2;9.8;
49686;PMS5003;36064;38.180;-122.272;2024-01-07T09:25:01;10.2;11.4;
49686;PMS5003;36064;38.180;-122.272;2024-01-07T09:30:00;9.4;8.8;
49686;PMS5003;36064;38.180;-122.272;2024-01-07T09:35:00;7.4;6.4;
49686;PMS5003;36064;38.180;-122.272;2024-01-07T09:40:00;7.8;6.4;
49686;PMS5003;36064;38.180;-122.272;2024-01-07T09:45:01;4.0;4.0;
49686;PMS5003;36064;38.180;-122.272;2024-01-07T09:50:00;2.4;2.4;
49686;PMS5003;36064;38.180;-122.272;2024-01-07T09:55:02;2.0;1.8;
49686;PMS5003;36064;38.180;-122.272;2024-01-07T10:00:00;2.0;1.6;
49686;PMS5003;36064;38.180;-122.272;2024-01-07T10:05:00;1.4;1.4;
49686;PMS5003;36064;38.180;-122.272;2024-01-07T10:10:10;3.2;3.2;
49686;PMS5003;36064;38.180;-122.272;2024-01-07T10:15:00;8.2;7.0;
49686;PMS5003;36064;38.180;-122.272;2024-01-07T10:20:00;9.4;9.0;
49686;PMS5003;36064;38.180;-122.272;2024-01-07T10:25:00;6.8;6.6;
49686;PMS5003;36064;38.180;-122.272;2024-01-07T10:30:01;6.4;6.0;
49686;PMS5003;36064;38.180;-122.272;2024-01-07T10:35:02;8.6;7.2;
49686;PMS5003;36064;38.180;-122.272;2024-01-07T10:40:00;5.8;5.4;
49686;PMS5003;36064;38.180;-122.272;2024-01-07T10:45:00;8.2;6.2;
49686;PMS5003;36064;38.180;-122.272;2024-01-07T10:50:01;13.8;12.6;
49686;PMS5003;36064;38.180;-122.272;2024-01-07T10:55:02;6.4;6.0;
49686;PMS5003;36064;38.180;-122.272;2024-01-07T11:00:00;6.0;7.4;
49686;PMS5003;36064;38.180;-122.272;2024-01-07T11:05:03;10.0;7.2;
49686;PMS5003;36064;38.180;-122.272;2024-01-07T11:10:02;10.2;9.6;
49686;PMS5003;36064;38.180;-122.272;2024-01-07T11:15:01;9.0;8.2;
49686;PMS5003;36064;38.180;-122.272;2024-01-07T11:20:01;11.0;10.0;
49686;PMS5003;36064;38.180;-122.272;2024-01-07T11:25:01;12.6;11.8;
49686;PMS5003;36064;38.180;-122.272;2024-01-07T11:30:01;12.8;12.6;
49686;PMS5003;36064;38.180;-122.272;2024-01-07T11:35:00;10.8;9.2;
49686;PMS5003;36064;38.180;-122.272;2024-01-07T11:40:02;13.4;10.2;
49686;PMS5003;36064;38.180;-122.272;2024-01-07T11:45:00;12.2;11.0;
49686;PMS5003;36064;38.180;-122.272;2024-01-07T11:50:00;12.2;9.0;
49686;PMS5003;36064;38.180;-122.272;2024-01-07T11:55:01;9.8;8.0;
49686;PMS5003;36064;38.180;-122.272;2024-01-07T12:00:00;8.4;7.6;
49686;PMS5003;36064;38.180;-122.272;2024-01-07T12:05:00;10.0;8.0;
49686;PMS5003;36064;38.180;-122.272;2024-01-07T12:10:00;9.8;8.8;
49686;PMS5003;36064;38.180;-122.272;2024-01-07T12:15:00;8.6;7.4;
49686;PMS5003;36064;38.180;-122.272;2024-01-07T12:20:00;7.6;6.0;
49686;PMS5003;36064;38.180;-122.272;2024-01-07T12:25:01;5.0;5.0;
49686;PMS5003;36064;38.180;-122.272;2024-01-07T12:30:00;5.6;5.6;
49686;PMS5003;36064;38.180;-122.272;2024-01-07T12:35:01;6.2;5.8;
49686;PMS5003;36064;38.180;-122.272;2024-01-07T12:40:00;5.8;5.2;
49686;PMS5003;36064;38.180;-122.272;2024-01-07T12:45:00;7.4;7.2;
49686;PMS5003;36064;38.180;-122.272;2024-01-07T12:50:00;4.4;4.0;
49686;PMS5003;36064;38.180;-122.272;2024-01-07T12:55:00;7.4;5.8;
49686;PMS5003;36064;38.180;-122.272;2024-01-07T13:00:01;5.2;5.0;
49686;PMS5003;36064;38.180;-122.272;2024-01-07T13:05:00;6.4;6.4;
49686;PMS5003;36064;38.180;-122.272;2024-01-07T13:10:00;6.4;4.8;
49686;PMS5003;36064;38.180;-122.272;2024-01-07T13:15:00;5.2;4.8;
49686;PMS5003;36064;38.180;-122.272;2024-01-07T13:20:00;8.0;7.6;
49686;PMS5003;36064;38.180;-122.272;2024-01-07T13:25:00;7.6;7.6;
49686;PMS5003;36064;38.180;-122.272;2024-01-07T13:30:00;4.4;5.2;
49686;PMS5003;36064;38.180;-122.272;2024-01-07T13:35:00;5.8;5.2;
49686;PMS5003;36064;38.180;-122.272;2024-01-07T13:40:00;5.6;4.8;
49686;PMS5003;36064;38.180;-122.272;2024-01-07T13:45:00;8.4;6.8;
49686;PMS5003;36064;38.180;-122.272;2024-01-07T13:50:00;8.6;6.8;
49686;PMS5003;36064;38.180;-122.272;2024-01-07T13:55:00;5.0;4.6;
49686;PMS5003;36064;38.180;-122.272;2024-01-07T14:00:00;8.6;7.0;
49686;PMS5003;36064;38.180;-122.272;2024-01-07T14:05:00;7.2;5.8;
49686;PMS5003;36064;38.180;-122.272;2024-01-07T14:10:00;5.0;5.0;
49686;PMS5003;36064;38.180;-122.272;2024-01-07T14:15:00;6.6;6.0;
49686;PMS5003;36064;38.180;-122.272;2024-01-07T14:20:00;6.6;6.2;
49686;PMS5003;36064;38.180;-122.272;2024-01-07T14:25:00;7.2;6.8;
49686;PMS5003;36064;38.180;-122.272;2024-01-07T14:30:00;7.8;6.6;
49686;PMS5003;36064;38.180;-122.272;2024-01-07T14:35:00;6.0;5.6;
49686;PMS5003;36064;38.180;-122.272;2024-01-07T14:40:01;4.8;4.2;
49686;PMS5003;36064;38.180;-122.272;2024-01-07T14:45:00;3.4;3.0;
49686;PMS5003;36064;38.180;-122.272;2024-01-07T14:50:00;4.0;3.6;
49686;PMS5003;36064;38.180;-122.272;2024-01-07T14:55:00;3.2;3.0;
49686;PMS5003;36064;38.180;-122.272;2024-01-07T15:00:01;3.6;3.6;
49686;PMS5003;36064;38.180;-122.272;2024-01-07T15:05:00;3.0;3.6;
49686;PMS5003;36064;38.180;-122.272;2024-01-07T15:10:00;2.4;2.0;
49686;PMS5003;36064;38.180;-122.272;2024-01-07T15:15:00;4.6;3.4;
49686;PMS5003;36064;38.180;-122.272;2024-01-07T15:20:00;3.0;2.6;
49686;PMS5003;36064;38.180;-122.272;2024-01-07T15:25:00;2.4;2.6;
49686;PMS5003;36064;38.180;-122.272;2024-01-07T15:30:00;2.4;2.0;
49686;PMS5003;36064;38.180;-122.272;2024-01-07T15:35:00;2.4;2.0;
49686;PMS5003;36064;38.180;-122.272;2024-01-07T15:40:00;2.2;2.2;
49686;PMS5003;36064;38.180;-122.272;2024-01-07T15:45:00;1.8;1.8;
49686;PMS5003;36064;38.180;-122.272;2024-01-07T15:50:00;2.6;2.6;
49686;PMS5003;36064;38.180;-122.272;2024-01-07T15:55:00;3.0;2.6;
49686;PMS5003;36064;38.180;-122.272;2024-01-07T16:00:00;1.4;1.4;
49686;PMS5003;36064;38.180;-122.272;2024-01-07T16:05:00;1.4;3.6;
49686;PMS5003;36064;38.180;-122.272;2024-01-07T16:10:00;4.4;4.2;
49686;PMS5003;36064;38.180;-122.272;2024-01-07T16:15:00;3.6;2.6;
49686;PMS5003;36064;38.180;-122.272;2024-01-07T16:20:00;2.6;2.4;
49686;PMS5003;36064;38.180;-122.272;2024-01-07T16:25:00;3.4;2.6;
49686;PMS5003;36064;38.180;-122.272;2024-01-07T16:30:00;3.0;2.6;
49686;PMS5003;36064;38.180;-122.272;2024-01-07T16:35:00;2.2;1.4;
49686;PMS5003;36064;38.180;-122.272;2024-01-07T16:40:01;3.4;1.4;
49686;PMS5003;36064;38.180;-122.272;2024-01-07T16:45:00;2.4;2.0;
49686;PMS5003;36064;38.180;-122.272;2024-01-07T16:50:00;2.6;2.0;
49686;PMS5003;36064;38.180;-122.272;2024-01-07T16:55:00;3.2;2.6;
49686;PMS5003;36064;38.180;-122.272;2024-01-07T17:00:00;2.0;1.2;
49686;PMS5003;36064;38.180;-122.272;2024-01-07T17:05:00;3.4;3.0;
49686;PMS5003;36064;38.180;-122.272;2024-01-07T17:10:01;2.2;2.0;
49686;PMS5003;36064;38.180;-122.272;2024-01-07T17:15:02;1.4;1.4;
49686;PMS5003;36064;38.180;-122.272;2024-01-07T17:20:00;2.2;2.2;
49686;PMS5003;36064;38.180;-122.272;2024-01-07T17:25:01;2.8;2.2;
49686;PMS5003;36064;38.180;-122.272;2024-01-07T17:30:00;2.8;2.2;
49686;PMS5003;36064;38.180;-122.272;2024-01-07T17:35:00;3.6;3.2;
49686;PMS5003;36064;38.180;-122.272;2024-01-07T17:40:00;2.2;1.6;
49686;PMS5003;36064;38.180;-122.272;2024-01-07T17:45:00;2.8;2.6;
49686;PMS5003;36064;38.180;-122.272;2024-01-07T17:50:00;3.0;2.0;
49686;PMS5003;36064;38.180;-122.272;2024-01-07T17:55:00;2.4;1.4;
49686;PMS5003;36064;38.180;-122.272;2024-01-07T18:00:00;3.0;1.8;
49686;PMS5003;36064;38.180;-122.272;2024-01-07T18:05:01;2.2;1.8;
49686;PMS5003;36064;38.180;-122.272;2024-01-07T18:10:00;3.2;2.4;
49686;PMS5003;36064;38.180;-122.272;2024-01-07T18:15:00;2.4;1.2;
49686;PMS5003;36064;38.180;-122.272;2024-01-07T18:20:00;1.8;1.0;
49686;PMS5003;36064;38.180;-122.272;2024-01-07T18:25:00;0.8;1.2;
49686;PMS5003;36064;38.180;-122.272;2024-01-07T18:30:00;0.4;0.0;
49686;PMS5003;36064;38.180;-122.272;2024-01-07T18:35:00;0.2;0.4;
49686;PMS5003;36064;38.180;-122.272;2024-01-07T18:40:00;12.8;11.6;
49686;PMS5003;36064;38.180;-122.272;2024-01-07T18:45:00;12.8;11.6;
49686;PMS5003;36064;38.180;-122.272;2024-01-07T18:50:00;12.8;11.6;
49686;PMS5003;36064;38.180;-122.272;2024-01-07T18:55:00;0.4;0.4;
49686;PMS5003;36064;38.180;-122.272;2024-01-07T19:00:00;0.4;0.4;
49686;PMS5003;36064;38.180;-122.272;2024-01-07T19:05:00;0.4;0.4;
49686;PMS5003;36064;38.180;-122.272;2024-01-07T19:10:00;0.4;0.4;
49686;PMS5003;36064;38.180;-122.272;2024-01-07T19:15:00;0.4;0.4;
49686;PMS5003;36064;38.180;-122.272;2024-01-07T19:20:00;0.4;0.4;
49686;PMS5003;36064;38.180;-122.272;2024-01-07T19:25:00;0.4;0.4;
49686;PMS5003;36064;38.180;-122.272;2024-01-07T19:30:00;0.4;0.4;
49686;PMS5003;36064;38.180;-122.272;2024-01-07T19:35:00;0.4;0.4;
49686;PMS5003;36064;38.180;-122.272;2024-01-07T19:40:01;0.4;0.4;
49686;PMS5003;36064;38.180;-122.272;2024-01-07T19:45:00;0.4;0.4;
49686;PMS5003;36064;38.180;-122.272;2024-01-07T19:50:00;0.6;0.4;
49686;PMS5003;36064;38.180;-122.272;2024-01-07T19:55:00;0.6;0.4;
49686;PMS5003;36064;38.180;-122.272;2024-01-07T20:00:00;0.0;0.0;
49686;PMS5003;36064;38.180;-122.272;2024-01-07T20:05:00;0.6;0.6;
49686;PMS5003;36064;38.180;-122.272;2024-01-07T20:10:00;0.6;0.6;
49686;PMS5003;36064;38.180;-122.272;2024-01-07T20:15:00;0.4;0.4;
49686;PMS5003;36064;38.180;-122.272;2024-01-07T20:20:00;0.4;0.4;
49686;PMS5003;36064;38.180;-122.272;2024-01-07T20:25:00;0.4;0.4;
49686;PMS5003;36064;38.180;-122.272;2024-01-07T20:30:00;0.4;0.4;
49686;PMS5003;36064;38.180;-122.272;2024-01-07T20:35:00;1.2;0.4;
49686;PMS5003;36064;38.180;-122.272;2024-01-07T20:40:00;1.2;0.4;
49686;PMS5003;36064;38.180;-122.272;2024-01-07T20:45:00;1.2;0.4;
49686;PMS5003;36064;38.180;-122.272;2024-01-07T20:50:00;0.0;0.0;
49686;PMS5003;36064;38.180;-122.272;2024-01-07T20:55:00;0.4;0.2;
49686;PMS5003;36064;38.180;-122.272;2024-01-07T21:00:00;0.8;0.4;
49686;PMS5003;36064;38.180;-122.272;2024-01-07T21:05:00;0.6;0.4;
49686;PMS5003;36064;38.180;-122.272;2024-01-07T21:10:00;0.4;0.4;
49686;PMS5003;36064;38.180;-122.272;2024-01-07T21:15:00;0.6;0.4;
49686;PMS5003;36064;38.180;-122.272;2024-01-07T21:20:00;0.6;0.4;
49686;PMS5003;36064;38.180;-122.272;2024-01-07T21:25:00;0.4;0.4;
49686;PMS5003;36064;38.180;-122.272;2024-01-07T21:30:00;0.2;0.4;
49686;PMS5003;36064;38.180;-122.272;2024-01-07T21:35:00;1.0;0.4;
49686;PMS5003;36064;38.180;-122.272;2024-01-07T21:40:01;0.8;0.8;
49686;PMS5003;36064;38.180;-122.272;2024-01-07T21:45:00;0.8;0.8;
49686;PMS5003;36064;38.180;-122.272;2024-01-07T21:50:00;0.8;0.8;
49686;PMS5003;36064;38.180;-122.272;2024-01-07T21:55:00;0.4;0.4;
49686;PMS5003;36064;38.180;-122.272;2024-01-07T22:00:00;0.4;0.4;
49686;PMS5003;36064;38.180;-122.272;2024-01-07T22:05:00;0.0;0.0;
49686;PMS5003;36064;38.180;-122.272;2024-01-07T22:10:01;0.8;0.8;
49686;PMS5003;36064;38.180;-122.272;2024-01-07T22:15:00;0.8;0.8;
49686;PMS5003;36064;38.180;-122.272;2024-01-07T22:20:00;0.8;0.8;
49686;PMS5003;36064;38.180;-122.272;2024-01-07T22:25:00;0.8;0.8;
49686;PMS5003;36064;38.180;-122.272;2024-01-07T22:30:00;0.8;0.8;
49686;PMS5003;36064;38.180;-122.272;2024-01-07T22:35:00;0.8;0.8;
49686;PMS5003;36064;38.180;-122.272;2024-01-07T22:40:00;0.8;0.8;
49686;PMS5003;36064;38.180;-122.272;2024-01-07T22:45:00;0.8;0.8;
49686;PMS5003;36064;38.180;-122.272;2024-01-07T22:50:00;0.4;0.8;
49686;PMS5003;36064;38.180;-122.272;2024-01-07T22:55:00;0.4;0.8;
49686;PMS5003;36064;38.180;-122.272;2024-01-07T23:00:00;0.4;0.8;
49686;PMS5003;36064;38.180;-122.272;2024-01-07T23:05:00;0.4;0.8;
49686;PMS5003;36064;38.180;-122.272;2024-01-07T23:10:00;0.4;0.8;
49686;PMS5003;36064;38.180;-122.272;2024-01-07T23:15:00;0.8;0.8;
49686;PMS5003;36064;38.180;-122.272;2024-01-07T23:20:00;0.4;0.0;
49686;PMS5003;36064;38.180;-122.272;2024-01-07T23:25:00;0.8;0.4;
49686;PMS5003;36064;38.180;-122.272;2024-01-07T23:30:00;0.8;0.4;
49686;PMS5003;36064;38.180;-122.272;2024-01-07T23:35:00;0.4;0.4;
49686;PMS5003;36064;38.180;-122.272;2024-01-07T23:40:00;0.4;0.4;
49686;PMS5003;36064;38.180;-122.272;2024-01-07T23:45:00;0.4;0.4;
49686;PMS5003;36064;38.180;-122.272;2024-01-07T23:50:00;0.4;0.4;
49686;PMS5003;36064;38.180;-122.272;2024-01-07T23:55:00;0.4;0.4;
